sensor_id;sensor_type;location;lat;lon;timestamp;temperature;humidity
65078;DHT22;51672;51.230;-2.322;2022-08-01T00:02:06;17.50;98.90
65078;DHT22;51672;51.230;-2.322;2022-08-01T00:05:49;17.40;98.90
65078;DHT22;51672;51.230;-2.322;2022-08-01T00:09:31;17.50;99.10
65078;DHT22;51672;51.230;-2.322;2022-08-01T00:13:13;17.60;99.10
65078;DHT22;51672;51.230;-2.322;2022-08-01T00:16:55;17.60;98.80
65078;DHT22;51672;51.230;-2.322;2022-08-01T00:20:37;17.80;98.70
65078;DHT22;51672;51.230;-2.322;2022-08-01T00:24:19;17.80;98.40
65078;DHT22;51672;51.230;-2.322;2022-08-01T00:28:01;17.90;98.10
65078;DHT22;51672;51.230;-2.322;2022-08-01T00:31:44;17.90;97.80
65078;DHT22;51672;51.230;-2.322;2022-08-01T00:35:26;18.00;97.70
65078;DHT22;51672;51.230;-2.322;2022-08-01T00:39:08;18.00;97.40
65078;DHT22;51672;51.230;-2.322;2022-08-01T00:42:50;18.00;96.80
65078;DHT22;51672;51.230;-2.322;2022-08-01T00:46:33;18.10;96.60
65078;DHT22;51672;51.230;-2.322;2022-08-01T00:50:15;18.00;96.50
65078;DHT22;51672;51.230;-2.322;2022-08-01T00:53:57;18.00;96.10
65078;DHT22;51672;51.230;-2.322;2022-08-01T00:57:39;17.90;95.80
65078;DHT22;51672;51.230;-2.322;2022-08-01T01:01:41;17.90;95.60
65078;DHT22;51672;51.230;-2.322;2022-08-01T01:05:32;17.90;95.50
65078;DHT22;51672;51.230;-2.322;2022-08-01T01:09:56;17.80;95.20
65078;DHT22;51672;51.230;-2.322;2022-08-01T01:13:46;17.80;95.20
65078;DHT22;51672;51.230;-2.322;2022-08-01T01:18:01;17.80;95.50
65078;DHT22;51672;51.230;-2.322;2022-08-01T01:22:22;17.80;95.00
65078;DHT22;51672;51.230;-2.322;2022-08-01T01:26:17;17.80;94.80
65078;DHT22;51672;51.230;-2.322;2022-08-01T01:30:03;17.80;94.50
65078;DHT22;51672;51.230;-2.322;2022-08-01T01:33:46;17.80;94.40
65078;DHT22;51672;51.230;-2.322;2022-08-01T01:37:33;17.80;94.10
65078;DHT22;51672;51.230;-2.322;2022-08-01T01:41:17;17.80;94.10
65078;DHT22;51672;51.230;-2.322;2022-08-01T01:45:00;17.90;94.10
65078;DHT22;51672;51.230;-2.322;2022-08-01T01:48:45;17.80;93.80
65078;DHT22;51672;51.230;-2.322;2022-08-01T01:52:28;17.70;93.70
65078;DHT22;51672;51.230;-2.322;2022-08-01T01:56:14;17.60;94.00
65078;DHT22;51672;51.230;-2.322;2022-08-01T01:59:58;17.50;94.20
65078;DHT22;51672;51.230;-2.322;2022-08-01T02:03:42;17.40;94.10
65078;DHT22;51672;51.230;-2.322;2022-08-01T02:07:26;17.30;94.20
65078;DHT22;51672;51.230;-2.322;2022-08-01T02:11:09;17.30;94.40
65078;DHT22;51672;51.230;-2.322;2022-08-01T02:15:02;17.20;94.50
65078;DHT22;51672;51.230;-2.322;2022-08-01T02:18:45;17.20;94.60
65078;DHT22;51672;51.230;-2.322;2022-08-01T02:22:32;17.20;94.50
65078;DHT22;51672;51.230;-2.322;2022-08-01T02:26:18;17.10;94.50
65078;DHT22;51672;51.230;-2.322;2022-08-01T02:30:03;17.10;94.60
65078;DHT22;51672;51.230;-2.322;2022-08-01T02:33:56;17.00;94.50
65078;DHT22;51672;51.230;-2.322;2022-08-01T02:37:39;16.90;94.50
65078;DHT22;51672;51.230;-2.322;2022-08-01T02:41:28;16.80;94.60
65078;DHT22;51672;51.230;-2.322;2022-08-01T02:45:12;16.70;94.80
65078;DHT22;51672;51.230;-2.322;2022-08-01T02:48:56;16.60;95.10
65078;DHT22;51672;51.230;-2.322;2022-08-01T02:52:41;16.50;95.00
65078;DHT22;51672;51.230;-2.322;2022-08-01T02:56:25;16.30;95.10
65078;DHT22;51672;51.230;-2.322;2022-08-01T03:00:17;16.20;95.40
65078;DHT22;51672;51.230;-2.322;2022-08-01T03:03:59;16.20;95.50
65078;DHT22;51672;51.230;-2.322;2022-08-01T03:07:42;16.20;95.30
65078;DHT22;51672;51.230;-2.322;2022-08-01T03:11:30;16.20;95.10
65078;DHT22;51672;51.230;-2.322;2022-08-01T03:15:13;16.20;94.90
65078;DHT22;51672;51.230;-2.322;2022-08-01T03:18:56;16.20;94.90
65078;DHT22;51672;51.230;-2.322;2022-08-01T03:22:42;16.20;94.90
65078;DHT22;51672;51.230;-2.322;2022-08-01T03:26:27;16.20;94.90
65078;DHT22;51672;51.230;-2.322;2022-08-01T03:30:11;16.20;94.90
65078;DHT22;51672;51.230;-2.322;2022-08-01T03:33:53;16.20;94.90
65078;DHT22;51672;51.230;-2.322;2022-08-01T03:37:43;16.10;94.90
65078;DHT22;51672;51.230;-2.322;2022-08-01T03:41:54;16.10;94.90
65078;DHT22;51672;51.230;-2.322;2022-08-01T03:45:41;16.10;95.00
65078;DHT22;51672;51.230;-2.322;2022-08-01T03:49:31;16.20;94.90
65078;DHT22;51672;51.230;-2.322;2022-08-01T03:53:14;16.30;94.90
65078;DHT22;51672;51.230;-2.322;2022-08-01T03:56:57;16.30;94.70
65078;DHT22;51672;51.230;-2.322;2022-08-01T04:00:40;16.40;94.50
65078;DHT22;51672;51.230;-2.322;2022-08-01T04:04:23;16.50;94.60
65078;DHT22;51672;51.230;-2.322;2022-08-01T04:08:05;16.60;94.30
65078;DHT22;51672;51.230;-2.322;2022-08-01T04:11:48;16.70;94.30
65078;DHT22;51672;51.230;-2.322;2022-08-01T04:15:30;16.70;94.10
65078;DHT22;51672;51.230;-2.322;2022-08-01T04:19:12;16.80;93.70
65078;DHT22;51672;51.230;-2.322;2022-08-01T04:22:54;16.80;93.40
65078;DHT22;51672;51.230;-2.322;2022-08-01T04:26:37;16.90;93.20
65078;DHT22;51672;51.230;-2.322;2022-08-01T04:30:29;17.00;93.00
65078;DHT22;51672;51.230;-2.322;2022-08-01T04:34:15;17.00;93.00
65078;DHT22;51672;51.230;-2.322;2022-08-01T04:37:59;17.00;93.10
65078;DHT22;51672;51.230;-2.322;2022-08-01T04:41:44;17.10;93.40
65078;DHT22;51672;51.230;-2.322;2022-08-01T04:45:28;17.10;93.00
65078;DHT22;51672;51.230;-2.322;2022-08-01T04:49:11;17.10;93.10
65078;DHT22;51672;51.230;-2.322;2022-08-01T04:52:54;17.10;92.90
65078;DHT22;51672;51.230;-2.322;2022-08-01T04:56:36;17.10;92.70
65078;DHT22;51672;51.230;-2.322;2022-08-01T05:00:18;17.10;92.60
65078;DHT22;51672;51.230;-2.322;2022-08-01T05:04:00;17.10;92.50
65078;DHT22;51672;51.230;-2.322;2022-08-01T05:07:42;17.10;92.60
65078;DHT22;51672;51.230;-2.322;2022-08-01T05:11:26;17.10;92.50
65078;DHT22;51672;51.230;-2.322;2022-08-01T05:18:56;17.10;92.40
65078;DHT22;51672;51.230;-2.322;2022-08-01T05:22:39;17.20;92.40
65078;DHT22;51672;51.230;-2.322;2022-08-01T05:30:08;17.20;92.00
65078;DHT22;51672;51.230;-2.322;2022-08-01T05:33:51;17.30;91.90
65078;DHT22;51672;51.230;-2.322;2022-08-01T05:41:24;17.40;91.60
65078;DHT22;51672;51.230;-2.322;2022-08-01T05:45:06;17.40;91.50
65078;DHT22;51672;51.230;-2.322;2022-08-01T05:48:59;17.40;91.40
65078;DHT22;51672;51.230;-2.322;2022-08-01T05:52:42;17.40;91.80
65078;DHT22;51672;51.230;-2.322;2022-08-01T05:56:25;17.50;91.40
65078;DHT22;51672;51.230;-2.322;2022-08-01T06:00:13;17.40;91.40
65078;DHT22;51672;51.230;-2.322;2022-08-01T06:03:57;17.50;91.10
65078;DHT22;51672;51.230;-2.322;2022-08-01T06:07:40;17.60;91.00
65078;DHT22;51672;51.230;-2.322;2022-08-01T06:11:29;17.70;90.90
65078;DHT22;51672;51.230;-2.322;2022-08-01T06:15:13;17.70;90.80
65078;DHT22;51672;51.230;-2.322;2022-08-01T06:18:56;17.80;90.60
65078;DHT22;51672;51.230;-2.322;2022-08-01T06:22:45;17.90;90.30
65078;DHT22;51672;51.230;-2.322;2022-08-01T06:26:33;18.10;90.20
65078;DHT22;51672;51.230;-2.322;2022-08-01T06:30:15;18.30;89.60
65078;DHT22;51672;51.230;-2.322;2022-08-01T06:34:01;18.50;89.30
65078;DHT22;51672;51.230;-2.322;2022-08-01T06:37:44;18.70;87.00
65078;DHT22;51672;51.230;-2.322;2022-08-01T06:41:29;18.90;85.40
65078;DHT22;51672;51.230;-2.322;2022-08-01T06:49:12;19.10;84.70
65078;DHT22;51672;51.230;-2.322;2022-08-01T06:53:08;19.20;86.10
65078;DHT22;51672;51.230;-2.322;2022-08-01T07:01:52;19.40;85.60
65078;DHT22;51672;51.230;-2.322;2022-08-01T07:23:34;20.10;81.60
65078;DHT22;51672;51.230;-2.322;2022-08-01T07:46:40;21.50;71.20
65078;DHT22;51672;51.230;-2.322;2022-08-01T07:50:43;21.50;71.10
65078;DHT22;51672;51.230;-2.322;2022-08-01T07:54:33;21.60;69.70
65078;DHT22;51672;51.230;-2.322;2022-08-01T08:02:26;21.50;67.60
65078;DHT22;51672;51.230;-2.322;2022-08-01T08:06:33;21.60;68.80
65078;DHT22;51672;51.230;-2.322;2022-08-01T08:10:22;21.80;69.30
65078;DHT22;51672;51.230;-2.322;2022-08-01T08:14:25;22.00;69.00
65078;DHT22;51672;51.230;-2.322;2022-08-01T08:23:28;23.00;68.80
65078;DHT22;51672;51.230;-2.322;2022-08-01T08:36:14;26.10;61.50
65078;DHT22;51672;51.230;-2.322;2022-08-01T08:40:23;27.50;52.30
65078;DHT22;51672;51.230;-2.322;2022-08-01T08:48:39;29.70;52.90
65078;DHT22;51672;51.230;-2.322;2022-08-01T08:52:46;30.40;43.80
65078;DHT22;51672;51.230;-2.322;2022-08-01T08:56:31;31.30;47.10
65078;DHT22;51672;51.230;-2.322;2022-08-01T09:00:41;32.20;40.80
65078;DHT22;51672;51.230;-2.322;2022-08-01T09:13:24;33.20;43.00
65078;DHT22;51672;51.230;-2.322;2022-08-01T09:30:19;34.20;41.60
65078;DHT22;51672;51.230;-2.322;2022-08-01T09:34:28;34.00;39.40
65078;DHT22;51672;51.230;-2.322;2022-08-01T09:42:44;34.40;42.30
65078;DHT22;51672;51.230;-2.322;2022-08-01T09:47:13;35.40;39.60
65078;DHT22;51672;51.230;-2.322;2022-08-01T09:51:27;36.70;38.20
65078;DHT22;51672;51.230;-2.322;2022-08-01T10:05:16;38.90;34.20
65078;DHT22;51672;51.230;-2.322;2022-08-01T10:14:15;40.20;37.80
65078;DHT22;51672;51.230;-2.322;2022-08-01T10:18:45;40.00;37.30
65078;DHT22;51672;51.230;-2.322;2022-08-01T10:22:55;39.30;37.10
65078;DHT22;51672;51.230;-2.322;2022-08-01T10:36:50;34.70;39.50
65078;DHT22;51672;51.230;-2.322;2022-08-01T10:41:20;33.70;40.60
65078;DHT22;51672;51.230;-2.322;2022-08-01T10:45:50;33.60;40.70
65078;DHT22;51672;51.230;-2.322;2022-08-01T11:02:38;36.60;37.10
65078;DHT22;51672;51.230;-2.322;2022-08-01T11:07:13;36.80;39.90
65078;DHT22;51672;51.230;-2.322;2022-08-01T11:11:22;36.60;37.60
65078;DHT22;51672;51.230;-2.322;2022-08-01T11:20:25;35.30;39.60
65078;DHT22;51672;51.230;-2.322;2022-08-01T11:28:38;33.10;39.70
65078;DHT22;51672;51.230;-2.322;2022-08-01T11:54:29;31.50;43.20
65078;DHT22;51672;51.230;-2.322;2022-08-01T12:06:51;31.30;42.40
65078;DHT22;51672;51.230;-2.322;2022-08-01T12:19:59;29.90;42.60
65078;DHT22;51672;51.230;-2.322;2022-08-01T12:23:45;29.30;44.00
65078;DHT22;51672;51.230;-2.322;2022-08-01T12:28:15;28.90;44.20
65078;DHT22;51672;51.230;-2.322;2022-08-01T12:45:51;28.60;45.80
65078;DHT22;51672;51.230;-2.322;2022-08-01T12:49:42;28.50;45.40
65078;DHT22;51672;51.230;-2.322;2022-08-01T12:58:15;28.30;45.20
65078;DHT22;51672;51.230;-2.322;2022-08-01T13:02:08;28.10;45.30
65078;DHT22;51672;51.230;-2.322;2022-08-01T13:06:12;28.00;44.60
65078;DHT22;51672;51.230;-2.322;2022-08-01T13:34:43;27.80;45.70
65078;DHT22;51672;51.230;-2.322;2022-08-01T13:43:46;27.80;45.50
65078;DHT22;51672;51.230;-2.322;2022-08-01T13:51:39;27.80;44.70
65078;DHT22;51672;51.230;-2.322;2022-08-01T14:04:50;27.40;45.10
65078;DHT22;51672;51.230;-2.322;2022-08-01T14:13:52;26.90;47.30
65078;DHT22;51672;51.230;-2.322;2022-08-01T14:27:18;26.50;46.40
65078;DHT22;51672;51.230;-2.322;2022-08-01T15:18:22;25.80;47.40
65078;DHT22;51672;51.230;-2.322;2022-08-01T15:31:31;25.70;47.70
65078;DHT22;51672;51.230;-2.322;2022-08-01T15:35:17;25.70;45.90
65078;DHT22;51672;51.230;-2.322;2022-08-01T16:05:40;25.50;49.00
65078;DHT22;51672;51.230;-2.322;2022-08-01T16:09:49;25.40;48.60
65078;DHT22;51672;51.230;-2.322;2022-08-01T16:13:33;25.40;48.80
65078;DHT22;51672;51.230;-2.322;2022-08-01T16:25:57;25.40;48.80
65078;DHT22;51672;51.230;-2.322;2022-08-01T16:43:57;25.40;49.50
65078;DHT22;51672;51.230;-2.322;2022-08-01T17:15:10;25.60;54.10
65078;DHT22;51672;51.230;-2.322;2022-08-01T17:18:53;25.60;54.10
65078;DHT22;51672;51.230;-2.322;2022-08-01T17:31:18;25.40;55.00
65078;DHT22;51672;51.230;-2.322;2022-08-01T17:35:25;25.40;56.80
65078;DHT22;51672;51.230;-2.322;2022-08-01T17:39:07;25.30;55.70
65078;DHT22;51672;51.230;-2.322;2022-08-01T17:51:33;25.10;56.70
65078;DHT22;51672;51.230;-2.322;2022-08-01T18:03:55;25.20;57.30
65078;DHT22;51672;51.230;-2.322;2022-08-01T18:25:21;24.90;57.70
65078;DHT22;51672;51.230;-2.322;2022-08-01T18:46:50;24.00;59.80
65078;DHT22;51672;51.230;-2.322;2022-08-01T18:51:20;23.80;61.20
65078;DHT22;51672;51.230;-2.322;2022-08-01T19:54:44;22.60;68.30
65078;DHT22;51672;51.230;-2.322;2022-08-01T19:58:27;22.60;70.40
65078;DHT22;51672;51.230;-2.322;2022-08-01T20:02:14;22.50;70.90
65078;DHT22;51672;51.230;-2.322;2022-08-01T20:06:00;22.40;71.00
65078;DHT22;51672;51.230;-2.322;2022-08-01T20:09:45;22.30;71.60
65078;DHT22;51672;51.230;-2.322;2022-08-01T20:13:29;22.30;72.60
65078;DHT22;51672;51.230;-2.322;2022-08-01T20:17:21;22.20;73.00
65078;DHT22;51672;51.230;-2.322;2022-08-01T20:21:04;22.20;74.00
65078;DHT22;51672;51.230;-2.322;2022-08-01T20:24:53;22.10;76.30
65078;DHT22;51672;51.230;-2.322;2022-08-01T20:28:39;22.00;76.30
65078;DHT22;51672;51.230;-2.322;2022-08-01T20:32:24;21.90;77.20
65078;DHT22;51672;51.230;-2.322;2022-08-01T20:36:09;21.80;77.60
65078;DHT22;51672;51.230;-2.322;2022-08-01T20:40:08;21.70;77.90
65078;DHT22;51672;51.230;-2.322;2022-08-01T20:43:55;21.60;77.10
65078;DHT22;51672;51.230;-2.322;2022-08-01T20:47:40;21.40;78.50
65078;DHT22;51672;51.230;-2.322;2022-08-01T20:51:27;21.30;78.90
65078;DHT22;51672;51.230;-2.322;2022-08-01T20:55:09;21.20;79.40
65078;DHT22;51672;51.230;-2.322;2022-08-01T21:03:22;20.90;79.30
65078;DHT22;51672;51.230;-2.322;2022-08-01T21:07:18;20.80;81.00
65078;DHT22;51672;51.230;-2.322;2022-08-01T21:11:04;20.70;82.60
65078;DHT22;51672;51.230;-2.322;2022-08-01T21:14:54;20.60;83.20
65078;DHT22;51672;51.230;-2.322;2022-08-01T21:18:38;20.50;83.70
65078;DHT22;51672;51.230;-2.322;2022-08-01T21:22:35;20.50;83.80
65078;DHT22;51672;51.230;-2.322;2022-08-01T21:26:19;20.50;84.60
65078;DHT22;51672;51.230;-2.322;2022-08-01T21:30:07;20.40;85.40
65078;DHT22;51672;51.230;-2.322;2022-08-01T21:33:50;20.30;85.80
65078;DHT22;51672;51.230;-2.322;2022-08-01T21:37:44;20.30;86.80
65078;DHT22;51672;51.230;-2.322;2022-08-01T21:41:34;20.20;87.40
65078;DHT22;51672;51.230;-2.322;2022-08-01T21:45:37;20.10;88.50
65078;DHT22;51672;51.230;-2.322;2022-08-01T21:49:39;20.00;89.10
65078;DHT22;51672;51.230;-2.322;2022-08-01T22:05:33;19.80;91.10
65078;DHT22;51672;51.230;-2.322;2022-08-01T22:09:32;19.70;91.50
65078;DHT22;51672;51.230;-2.322;2022-08-01T22:13:14;19.70;91.80
65078;DHT22;51672;51.230;-2.322;2022-08-01T22:16:57;19.70;92.30
65078;DHT22;51672;51.230;-2.322;2022-08-01T22:20:41;19.60;92.60
65078;DHT22;51672;51.230;-2.322;2022-08-01T22:24:24;19.60;92.90
65078;DHT22;51672;51.230;-2.322;2022-08-01T22:28:07;19.50;93.10
65078;DHT22;51672;51.230;-2.322;2022-08-01T22:31:51;19.50;93.30
65078;DHT22;51672;51.230;-2.322;2022-08-01T22:35:39;19.40;93.50
65078;DHT22;51672;51.230;-2.322;2022-08-01T22:39:21;19.40;93.70
65078;DHT22;51672;51.230;-2.322;2022-08-01T22:43:29;19.40;94.00
65078;DHT22;51672;51.230;-2.322;2022-08-01T22:47:28;19.40;94.00
65078;DHT22;51672;51.230;-2.322;2022-08-01T22:55:20;19.40;94.50
65078;DHT22;51672;51.230;-2.322;2022-08-01T22:59:14;19.40;94.40
65078;DHT22;51672;51.230;-2.322;2022-08-01T23:07:10;19.40;93.50
65078;DHT22;51672;51.230;-2.322;2022-08-01T23:10:52;19.40;94.40
65078;DHT22;51672;51.230;-2.322;2022-08-01T23:14:36;19.40;94.40
65078;DHT22;51672;51.230;-2.322;2022-08-01T23:18:20;19.40;94.50
65078;DHT22;51672;51.230;-2.322;2022-08-01T23:22:03;19.40;94.50
65078;DHT22;51672;51.230;-2.322;2022-08-01T23:25:47;19.40;94.80
65078;DHT22;51672;51.230;-2.322;2022-08-01T23:29:29;19.40;94.70
65078;DHT22;51672;51.230;-2.322;2022-08-01T23:33:12;19.40;94.90
65078;DHT22;51672;51.230;-2.322;2022-08-01T23:36:55;19.30;95.20
65078;DHT22;51672;51.230;-2.322;2022-08-01T23:40:38;19.30;95.30
65078;DHT22;51672;51.230;-2.322;2022-08-01T23:44:20;19.40;95.80
65078;DHT22;51672;51.230;-2.322;2022-08-01T23:48:02;19.40;96.30
65078;DHT22;51672;51.230;-2.322;2022-08-01T23:51:44;19.30;96.40
65078;DHT22;51672;51.230;-2.322;2022-08-01T23:55:26;19.20;96.80
65078;DHT22;51672;51.230;-2.322;2022-08-01T23:59:18;19.20;96.50
